createdAt,value
2023-03-11T00:01:00.570Z,13.13
2023-03-11T00:02:03.472Z,12.60
2023-03-11T00:03:08.717Z,12.97
2023-03-11T00:04:11.089Z,13.48
2023-03-11T00:05:20.009Z,12.98
2023-03-11T00:06:22.457Z,13.57
2023-03-11T00:07:24.766Z,13.33
2023-03-11T00:08:27.166Z,12.67
2023-03-11T00:09:29.049Z,12.51
2023-03-11T00:10:34.351Z,13.03
2023-03-11T00:11:37.225Z,13.51
2023-03-11T00:12:39.103Z,13.05
2023-03-11T00:13:41.033Z,13.75
2023-03-11T00:14:43.071Z,13.06
2023-03-11T00:15:48.095Z,13.06
2023-03-11T00:16:50.204Z,13.11
2023-03-11T00:17:52.398Z,13.46
2023-03-11T00:18:54.453Z,13.93
2023-03-11T00:19:56.344Z,12.95
2023-03-11T00:20:59.293Z,13.20
2023-03-11T00:22:02.341Z,12.45
2023-03-11T00:23:06.571Z,12.94
2023-03-11T00:24:09.119Z,12.85
2023-03-11T00:25:12.854Z,12.98
2023-03-11T00:26:15.726Z,12.18
2023-03-11T00:27:17.658Z,14.04
2023-03-11T00:28:19.548Z,12.62
2023-03-11T00:29:21.852Z,12.93
2023-03-11T00:30:25.395Z,14.15
2023-03-11T00:31:29.177Z,13.03
2023-03-11T00:32:31.315Z,13.10
2023-03-11T00:33:33.348Z,11.97
2023-03-11T00:34:35.234Z,13.25
2023-03-11T00:35:37.143Z,12.15
2023-03-11T00:36:39.248Z,12.83
2023-03-11T00:37:41.939Z,12.24
2023-03-11T00:38:43.852Z,12.41
2023-03-11T00:39:45.975Z,12.97
2023-03-11T00:40:51.720Z,11.80
2023-03-11T00:41:53.683Z,12.94
2023-03-11T00:42:56.700Z,11.55
2023-03-11T00:43:59.092Z,12.01
2023-03-11T00:45:00.979Z,12.79
2023-03-11T00:46:03.253Z,12.47
2023-03-11T00:47:05.514Z,11.35
2023-03-11T00:48:08.024Z,12.03
2023-03-11T00:49:09.914Z,10.91
2023-03-11T00:50:18.799Z,11.87
2023-03-11T00:51:20.826Z,11.08
2023-03-11T00:52:22.806Z,11.43
2023-03-11T00:53:24.817Z,11.04
2023-03-11T00:54:27.509Z,10.68
2023-03-11T00:55:32.769Z,11.92
2023-03-11T00:56:35.238Z,12.17
2023-03-11T00:57:37.215Z,10.85
2023-03-11T00:58:40.172Z,11.23
2023-03-11T00:59:42.345Z,10.82
2023-03-11T01:00:44.630Z,11.34
2023-03-11T01:01:46.679Z,11.61
2023-03-11T01:02:49.394Z,11.39
2023-03-11T01:03:51.484Z,11.06
2023-03-11T01:04:57.112Z,11.31
2023-03-11T01:05:59.175Z,11.01
2023-03-11T01:07:02.525Z,11.30
2023-03-11T01:08:05.230Z,10.61
2023-03-11T01:09:07.282Z,11.49
2023-03-11T01:10:11.127Z,11.81
2023-03-11T01:11:13.209Z,12.09
2023-03-11T01:12:15.098Z,10.79
2023-03-11T01:13:16.987Z,12.07
2023-03-11T01:14:19.404Z,12.66
2023-03-11T01:15:25.276Z,11.58
2023-03-11T01:16:27.518Z,10.92
2023-03-11T01:17:30.522Z,11.85
2023-03-11T01:18:32.414Z,11.20
2023-03-11T01:19:34.394Z,11.40
2023-03-11T01:20:37.840Z,11.55
2023-03-11T01:21:40.282Z,11.96
2023-03-11T01:22:42.796Z,11.76
2023-03-11T01:23:45.115Z,11.01
2023-03-11T01:24:46.999Z,11.57
2023-03-11T01:25:49.107Z,11.13
2023-03-11T01:26:51.746Z,11.07
2023-03-11T01:27:53.654Z,11.06
2023-03-11T01:28:55.786Z,11.05
2023-03-11T01:29:57.688Z,11.83
2023-03-11T01:31:02.324Z,11.23
2023-03-11T01:32:05.842Z,10.76
2023-03-11T01:35:27.051Z,9.25
2023-03-11T01:36:29.199Z,10.32
2023-03-11T01:37:31.191Z,9.99
2023-03-11T01:38:33.070Z,10.99
2023-03-11T01:39:35.175Z,10.84
2023-03-11T01:40:41.065Z,10.46
2023-03-11T01:41:43.241Z,10.48
2023-03-11T01:42:45.397Z,10.85
2023-03-11T01:43:51.157Z,10.65
2023-03-11T01:44:53.177Z,9.89
2023-03-11T01:45:58.872Z,11.21
2023-03-11T01:47:04.711Z,10.72
2023-03-11T01:48:10.344Z,10.55
2023-03-11T01:49:13.984Z,10.31
2023-03-11T01:50:16.953Z,10.89
2023-03-11T01:51:43.492Z,10.71
2023-03-11T01:52:47.079Z,11.18
2023-03-11T01:53:50.712Z,10.74
2023-03-11T01:54:52.613Z,11.37
2023-03-11T01:55:55.222Z,11.07
2023-03-11T01:56:59.812Z,10.69
2023-03-11T01:58:05.319Z,11.66
2023-03-11T01:59:10.529Z,10.47
2023-03-11T02:00:14.675Z,11.04
2023-03-11T02:01:20.585Z,9.84
2023-03-11T02:02:44.326Z,11.22
2023-03-11T02:03:47.509Z,11.26
2023-03-11T02:04:50.948Z,11.34
2023-03-11T02:05:55.357Z,10.59
2023-03-11T02:06:57.988Z,10.85
2023-03-11T02:08:00.871Z,11.72
2023-03-11T02:09:03.158Z,11.03
2023-03-11T02:10:06.832Z,10.72
2023-03-11T02:11:15.091Z,11.19
2023-03-11T02:12:17.571Z,10.77
2023-03-11T02:13:20.175Z,10.20
2023-03-11T02:14:23.971Z,10.89
2023-03-11T02:15:26.359Z,11.41
2023-03-11T02:16:30.315Z,10.46
2023-03-11T02:17:36.707Z,10.35
2023-03-11T02:18:42.841Z,10.31
2023-03-11T02:20:12.861Z,9.90
2023-03-11T02:21:22.351Z,11.13
2023-03-11T02:22:24.940Z,10.37
2023-03-11T02:23:33.713Z,11.41
2023-03-11T02:24:45.711Z,10.36
2023-03-11T02:25:54.317Z,11.21
2023-03-11T02:27:08.984Z,10.68
2023-03-11T02:28:13.648Z,10.42
2023-03-11T02:29:16.229Z,10.81
2023-03-11T02:30:21.186Z,11.49
2023-03-11T02:31:25.173Z,11.08
2023-03-11T02:32:28.579Z,11.79
2023-03-11T02:33:34.199Z,11.98
2023-03-11T02:34:38.721Z,10.77
2023-03-11T02:35:41.268Z,11.28
2023-03-11T02:36:43.447Z,11.48
2023-03-11T02:37:49.097Z,11.03
2023-03-11T02:38:51.183Z,11.29
2023-03-11T02:39:54.771Z,11.28
2023-03-11T02:40:59.672Z,11.60
2023-03-11T02:42:11.850Z,11.31
2023-03-11T02:43:17.733Z,11.65
2023-03-11T02:44:19.778Z,10.99
2023-03-11T02:45:25.284Z,11.20
2023-03-11T02:46:27.951Z,11.62
2023-03-11T02:47:30.657Z,11.44
2023-03-11T02:48:34.368Z,11.38
2023-03-11T02:49:37.132Z,10.68
2023-03-11T02:50:40.611Z,11.71
2023-03-11T02:51:42.756Z,10.81
2023-03-11T02:52:47.021Z,11.02
2023-03-11T02:53:52.977Z,11.03
2023-03-11T02:54:55.036Z,12.13
2023-03-11T02:55:56.898Z,11.65
2023-03-11T02:56:58.972Z,12.65
2023-03-11T02:58:01.002Z,11.03
2023-03-11T02:59:03.407Z,12.69
2023-03-11T03:00:07.574Z,11.68
2023-03-11T03:01:10.957Z,11.47
2023-03-11T03:02:13.248Z,11.58
2023-03-11T03:03:15.288Z,12.59
2023-03-11T03:04:17.525Z,11.75
2023-03-11T03:05:21.714Z,12.17
2023-03-11T03:06:25.132Z,12.10
2023-03-11T03:07:27.438Z,11.79
2023-03-11T03:08:29.481Z,11.86
2023-03-11T03:09:32.277Z,11.85
2023-03-11T03:10:34.389Z,11.35
2023-03-11T03:11:36.534Z,11.75
2023-03-11T03:12:38.400Z,12.17
2023-03-11T03:13:40.296Z,12.66
2023-03-11T03:14:42.203Z,12.56
2023-03-11T03:15:44.299Z,12.09
2023-03-11T03:16:46.544Z,11.57
2023-03-11T03:17:48.862Z,12.11
2023-03-11T03:18:50.780Z,12.30
2023-03-11T03:19:52.645Z,12.41
2023-03-11T03:20:55.904Z,12.39
2023-03-11T03:21:57.827Z,12.89
2023-03-11T03:22:59.697Z,11.89
2023-03-11T03:24:01.938Z,11.99
2023-03-11T03:25:05.224Z,12.43
2023-03-11T03:26:07.555Z,12.30
2023-03-11T03:27:09.586Z,12.72
2023-03-11T03:28:13.552Z,12.41
2023-03-11T03:29:15.541Z,13.18
2023-03-11T03:30:18.244Z,12.90
2023-03-11T03:31:20.626Z,12.57
2023-03-11T03:32:22.687Z,12.43
2023-03-11T03:33:24.775Z,13.11
2023-03-11T03:34:26.686Z,12.51
2023-03-11T03:35:28.725Z,11.95
2023-03-11T03:36:30.709Z,12.06
2023-03-11T03:37:35.998Z,12.13
2023-03-11T03:38:38.341Z,11.73
2023-03-11T03:39:41.233Z,12.65
2023-03-11T03:40:47.340Z,11.95
2023-03-11T03:41:50.465Z,12.32
2023-03-11T03:42:52.806Z,12.42
2023-03-11T03:43:57.610Z,12.87
2023-03-11T03:44:59.869Z,11.18
2023-03-11T03:46:04.535Z,12.37
2023-03-11T03:47:07.184Z,11.51
2023-03-11T03:48:09.454Z,12.69
2023-03-11T03:49:12.266Z,12.85
2023-03-11T03:50:15.269Z,12.93
2023-03-11T03:51:17.735Z,12.04
2023-03-11T03:52:19.725Z,12.91
2023-03-11T03:53:22.409Z,13.37
2023-03-11T03:54:24.794Z,12.58
2023-03-11T03:55:26.707Z,12.81
2023-03-11T03:56:28.829Z,14.22
2023-03-11T03:57:31.502Z,13.29
2023-03-11T03:58:34.533Z,13.10
2023-03-11T03:59:36.615Z,13.64
2023-03-11T04:00:39.029Z,13.81
2023-03-11T04:01:41.059Z,12.43
2023-03-11T04:02:43.039Z,14.29
2023-03-11T04:03:46.501Z,13.92
2023-03-11T04:04:49.140Z,13.63
2023-03-11T04:05:51.606Z,13.83
2023-03-11T04:06:53.801Z,13.77
2023-03-11T04:07:55.851Z,13.64
2023-03-11T04:08:57.828Z,13.97
2023-03-11T04:10:00.840Z,14.17
2023-03-11T04:11:03.398Z,13.96
2023-03-11T04:12:06.601Z,14.07
2023-03-11T04:13:09.016Z,13.98
2023-03-11T04:14:11.278Z,14.40
2023-03-11T04:15:13.173Z,13.97
2023-03-11T04:16:18.962Z,13.81
2023-03-11T04:17:21.038Z,14.53
2023-03-11T04:18:23.294Z,14.53
2023-03-11T04:19:26.347Z,13.37
2023-03-11T04:20:28.350Z,14.33
2023-03-11T04:21:31.379Z,14.71
2023-03-11T04:22:34.167Z,13.87
2023-03-11T04:23:37.054Z,13.94
2023-03-11T04:24:39.078Z,14.15
2023-03-11T04:25:41.201Z,14.59
2023-03-11T04:26:43.221Z,15.15
2023-03-11T04:27:45.231Z,13.99
2023-03-11T04:28:47.385Z,15.65
2023-03-11T04:29:51.006Z,14.82
2023-03-11T04:30:53.194Z,14.71
2023-03-11T04:31:55.364Z,15.17
2023-03-11T04:32:58.244Z,14.29
2023-03-11T04:34:00.254Z,14.28
2023-03-11T04:35:02.646Z,14.28
2023-03-11T04:36:06.972Z,14.54
2023-03-11T04:37:09.627Z,14.34
2023-03-11T04:38:11.621Z,15.25
2023-03-11T04:39:17.154Z,14.75
2023-03-11T04:40:19.420Z,15.02
2023-03-11T04:41:21.440Z,15.90
2023-03-11T04:42:23.619Z,15.23
2023-03-11T04:43:26.485Z,14.97
2023-03-11T04:44:28.472Z,15.41
2023-03-11T04:45:30.524Z,15.21
2023-03-11T04:46:32.730Z,15.17
2023-03-11T04:47:34.771Z,16.29
2023-03-11T04:48:36.905Z,15.58
2023-03-11T04:49:38.778Z,14.68
2023-03-11T04:50:40.767Z,15.01
2023-03-11T04:51:43.100Z,14.98
2023-03-11T04:52:46.652Z,14.49
2023-03-11T04:53:48.585Z,15.13
2023-03-11T04:54:51.274Z,15.52
2023-03-11T04:55:58.971Z,15.79
2023-03-11T04:57:01.003Z,16.19
2023-03-11T04:58:03.212Z,15.87
2023-03-11T04:59:05.222Z,15.15
2023-03-11T05:00:11.144Z,16.80
2023-03-11T05:01:13.248Z,15.68
2023-03-11T05:02:15.233Z,15.99
2023-03-11T05:03:17.326Z,15.28
2023-03-11T05:04:19.579Z,16.29
2023-03-11T05:05:21.647Z,16.24
2023-03-11T05:06:23.865Z,15.37
2023-03-11T05:07:25.736Z,15.65
2023-03-11T05:08:27.962Z,15.18
2023-03-11T05:09:29.861Z,16.02
2023-03-11T05:10:32.310Z,15.61
2023-03-11T05:11:34.423Z,15.33
2023-03-11T05:12:36.497Z,15.06
2023-03-11T05:13:39.119Z,15.13
2023-03-11T05:14:41.011Z,16.09
2023-03-11T05:15:45.460Z,15.48
2023-03-11T05:16:48.658Z,15.58
2023-03-11T05:17:50.635Z,14.80
2023-03-11T05:18:52.615Z,15.37
2023-03-11T05:19:55.438Z,14.95
2023-03-11T05:20:58.087Z,14.63
2023-03-11T05:22:02.315Z,14.29
2023-03-11T05:23:04.452Z,14.96
2023-03-11T05:24:06.698Z,15.15
2023-03-11T05:25:11.950Z,14.85
2023-03-11T05:26:14.420Z,13.76
2023-03-11T05:27:16.591Z,14.83
2023-03-11T05:28:18.457Z,14.36
2023-03-11T05:29:21.538Z,14.83
2023-03-11T05:30:24.257Z,13.66
2023-03-11T05:31:26.301Z,14.81
2023-03-11T05:32:29.276Z,13.81
2023-03-11T05:33:31.516Z,13.91
2023-03-11T05:34:33.691Z,13.56
2023-03-11T05:35:35.749Z,13.56
2023-03-11T05:36:38.564Z,14.91
2023-03-11T05:37:41.374Z,13.39
2023-03-11T05:38:43.458Z,14.13
2023-03-11T05:39:45.360Z,13.49
2023-03-11T05:40:47.550Z,12.65
2023-03-11T05:41:49.441Z,14.02
2023-03-11T05:42:51.425Z,13.63
2023-03-11T05:43:53.341Z,13.51
2023-03-11T05:44:55.834Z,13.73
2023-03-11T05:45:57.860Z,13.62
2023-03-11T05:47:01.593Z,12.82
2023-03-11T05:48:04.081Z,13.53
2023-03-11T05:49:06.067Z,13.07
2023-03-11T05:50:10.921Z,13.45
2023-03-11T05:51:14.442Z,13.15
2023-03-11T05:52:17.370Z,14.41
2023-03-11T05:53:19.291Z,13.62
2023-03-11T05:54:21.158Z,13.55
2023-03-11T05:55:23.138Z,13.65
2023-03-11T05:56:26.761Z,12.99
2023-03-11T05:57:29.009Z,13.13
2023-03-11T05:58:32.121Z,12.70
2023-03-11T05:59:34.423Z,12.98
2023-03-11T06:00:36.400Z,12.34
2023-03-11T06:01:40.282Z,12.89
2023-03-11T06:02:42.764Z,12.43
2023-03-11T06:03:46.927Z,12.01
2023-03-11T06:04:50.287Z,12.22
2023-03-11T06:05:53.549Z,12.46
2023-03-11T06:06:55.692Z,12.16
2023-03-11T06:07:58.259Z,13.87
2023-03-11T06:09:01.994Z,12.59
2023-03-11T06:10:05.988Z,12.94
2023-03-11T06:11:09.948Z,12.54
2023-03-11T06:12:12.155Z,12.45
2023-03-11T06:13:14.310Z,12.32
2023-03-11T06:14:16.755Z,12.27
2023-03-11T06:15:18.862Z,12.49
2023-03-11T06:16:24.739Z,12.90
2023-03-11T06:17:29.337Z,12.61
2023-03-11T06:18:30.928Z,12.75
2023-03-11T06:19:33.413Z,12.33
2023-03-11T06:20:37.023Z,12.67
2023-03-11T06:21:39.217Z,14.42
2023-03-11T06:22:41.440Z,12.16
2023-03-11T06:23:45.868Z,12.47
2023-03-11T06:24:48.079Z,12.14
2023-03-11T06:25:58.455Z,12.97
2023-03-11T06:27:00.498Z,12.79
2023-03-11T06:28:02.648Z,11.98
2023-03-11T06:29:06.771Z,13.14
2023-03-11T06:30:11.718Z,12.93
2023-03-11T06:32:27.369Z,13.61
2023-03-11T06:33:29.380Z,13.13
2023-03-11T06:34:31.461Z,12.33
2023-03-11T06:35:33.493Z,12.43
2023-03-11T06:36:35.627Z,13.41
2023-03-11T06:37:39.188Z,12.92
2023-03-11T06:38:41.341Z,12.81
2023-03-11T06:39:43.481Z,13.67
2023-03-11T06:40:45.641Z,13.01
2023-03-11T06:41:47.522Z,13.05
2023-03-11T06:42:49.726Z,13.00
2023-03-11T06:43:51.881Z,12.83
2023-03-11T06:44:53.919Z,12.44
2023-03-11T06:45:56.315Z,12.59
2023-03-11T06:46:58.496Z,13.28
2023-03-11T06:48:00.480Z,12.75
2023-03-11T06:49:02.724Z,13.25
2023-03-11T06:50:06.026Z,13.20
2023-03-11T06:51:10.782Z,13.76
2023-03-11T06:52:13.057Z,13.24
2023-03-11T06:53:16.907Z,13.19
2023-03-11T06:54:19.501Z,13.28
2023-03-11T06:55:21.645Z,13.09
2023-03-11T06:56:24.347Z,13.13
2023-03-11T06:57:26.673Z,12.91
2023-03-11T06:58:30.266Z,13.21
2023-03-11T06:59:32.742Z,12.81
2023-03-11T07:00:36.075Z,13.40
2023-03-11T07:01:38.230Z,13.53
2023-03-11T07:02:40.606Z,13.25
2023-03-11T07:03:45.076Z,12.79
2023-03-11T07:04:51.051Z,13.15
2023-03-11T07:05:53.109Z,13.67
2023-03-11T07:06:57.529Z,13.23
2023-03-11T07:07:59.464Z,13.92
2023-03-11T07:09:01.671Z,14.21
2023-03-11T07:10:05.716Z,13.80
2023-03-11T07:11:20.262Z,12.94
2023-03-11T07:12:23.044Z,13.83
2023-03-11T07:13:25.735Z,13.96
2023-03-11T07:14:28.126Z,14.55
2023-03-11T07:15:30.142Z,13.70
2023-03-11T07:16:32.215Z,13.53
2023-03-11T07:17:34.234Z,14.33
2023-03-11T07:18:37.253Z,14.49
2023-03-11T07:19:39.276Z,15.55
2023-03-11T07:20:41.564Z,13.95
2023-03-11T07:21:43.609Z,14.55
2023-03-11T07:22:45.717Z,13.97
2023-03-11T07:23:50.830Z,14.00
2023-03-11T07:24:52.913Z,14.48
2023-03-11T07:25:55.029Z,13.51
2023-03-11T07:26:57.273Z,12.94
2023-03-11T07:27:59.144Z,14.58
2023-03-11T07:29:01.658Z,13.77
2023-03-11T07:30:06.166Z,14.28
2023-03-11T07:31:10.702Z,15.22
2023-03-11T07:32:12.820Z,13.76
2023-03-11T07:33:15.776Z,14.64
2023-03-11T07:34:18.838Z,15.00
2023-03-11T07:35:21.108Z,14.01
2023-03-11T07:36:24.441Z,14.18
2023-03-11T07:37:26.437Z,14.42
2023-03-11T07:38:28.326Z,13.71
2023-03-11T07:39:31.486Z,14.39
2023-03-11T07:40:34.535Z,13.97
2023-03-11T07:41:36.441Z,13.24
2023-03-11T07:42:38.566Z,14.05
2023-03-11T07:43:43.056Z,13.27
2023-03-11T07:44:47.480Z,14.39
2023-03-11T07:45:50.160Z,14.57
2023-03-11T07:46:52.351Z,14.61
2023-03-11T07:47:54.284Z,14.58
2023-03-11T07:48:56.712Z,15.95
2023-03-11T07:49:59.244Z,15.15
2023-03-11T07:51:03.746Z,14.65
2023-03-11T07:52:06.753Z,14.32
2023-03-11T07:53:09.649Z,15.39
2023-03-11T07:54:13.096Z,14.95
2023-03-11T07:55:15.832Z,14.95
2023-03-11T07:56:19.514Z,13.99
2023-03-11T07:57:21.652Z,14.68
2023-03-11T07:58:28.059Z,14.65
2023-03-11T07:59:30.140Z,14.67
2023-03-11T08:00:32.527Z,14.93
2023-03-11T08:01:34.542Z,14.43
2023-03-11T08:02:36.566Z,15.38
2023-03-11T08:03:38.783Z,15.23
2023-03-11T08:04:40.922Z,15.09
2023-03-11T08:05:43.154Z,15.23
2023-03-11T08:06:47.535Z,15.33
2023-03-11T08:07:49.544Z,15.65
2023-03-11T08:08:52.258Z,14.69
2023-03-11T08:09:54.262Z,14.64
2023-03-11T08:10:56.356Z,15.18
2023-03-11T08:11:58.239Z,15.90
2023-03-11T08:13:00.155Z,14.80
2023-03-11T08:14:02.349Z,15.05
2023-03-11T08:15:07.807Z,14.47
2023-03-11T08:16:13.851Z,14.80
2023-03-11T08:17:16.320Z,14.81
2023-03-11T08:18:18.326Z,14.79
2023-03-11T08:19:20.295Z,15.06
2023-03-11T08:20:24.038Z,15.01
2023-03-11T08:21:29.090Z,14.90
2023-03-11T08:22:31.141Z,16.13
2023-03-11T08:23:33.225Z,15.02
2023-03-11T08:24:35.213Z,16.28
2023-03-11T08:25:41.768Z,15.56
2023-03-11T08:26:46.084Z,17.02
2023-03-11T08:27:48.296Z,15.49
2023-03-11T08:28:50.382Z,15.21
2023-03-11T08:29:52.676Z,16.67
2023-03-11T08:30:54.982Z,17.29
2023-03-11T08:31:57.419Z,18.84
2023-03-11T08:32:59.434Z,16.87
2023-03-11T08:34:07.844Z,16.99
2023-03-11T08:35:11.077Z,18.12
2023-03-11T08:36:13.517Z,18.59
2023-03-11T08:37:15.512Z,18.19
2023-03-11T08:38:17.705Z,19.96
2023-03-11T08:39:19.720Z,19.61
2023-03-11T08:40:22.841Z,18.47
2023-03-11T08:41:25.645Z,19.76
2023-03-11T08:42:27.580Z,18.37
2023-03-11T08:43:29.459Z,18.37
2023-03-11T08:44:31.373Z,19.06
2023-03-11T08:45:33.839Z,18.79
2023-03-11T08:46:37.730Z,18.10
2023-03-11T08:47:40.664Z,18.25
2023-03-11T08:48:42.710Z,19.89
2023-03-11T08:49:44.667Z,18.95
2023-03-11T08:50:53.851Z,19.36
2023-03-11T08:51:52.820Z,19.32
2023-03-11T08:52:54.714Z,19.67
2023-03-11T08:53:56.724Z,20.57
2023-03-11T08:54:58.796Z,20.03
2023-03-11T08:56:01.858Z,20.41
2023-03-11T08:57:03.772Z,20.22
2023-03-11T08:58:07.241Z,20.18
2023-03-11T08:59:09.209Z,20.07
2023-03-11T09:00:13.318Z,20.61
2023-03-11T09:01:16.136Z,22.19
2023-03-11T09:02:18.053Z,22.33
2023-03-11T09:03:20.176Z,23.77
2023-03-11T09:04:22.259Z,23.57
2023-03-11T09:05:24.340Z,22.75
2023-03-11T09:06:26.479Z,24.97
2023-03-11T09:07:29.794Z,23.98
2023-03-11T09:08:31.704Z,23.91
2023-03-11T09:09:33.678Z,24.85
2023-03-11T09:10:35.952Z,25.60
2023-03-11T09:11:38.832Z,24.95
2023-03-11T09:12:41.337Z,24.99
2023-03-11T09:13:44.009Z,25.73
2023-03-11T09:14:47.011Z,25.07
2023-03-11T09:15:50.700Z,27.26
2023-03-11T09:16:52.892Z,25.94
2023-03-11T09:17:54.977Z,27.02
2023-03-11T09:18:57.330Z,26.73
2023-03-11T09:19:59.295Z,26.49
2023-03-11T09:21:01.405Z,27.32
2023-03-11T09:22:04.584Z,26.58
2023-03-11T09:23:07.402Z,27.03
2023-03-11T09:24:09.304Z,28.66
2023-03-11T09:25:13.627Z,27.59
2023-03-11T09:26:15.982Z,27.73
2023-03-11T09:27:18.060Z,29.52
2023-03-11T09:28:20.509Z,30.63
2023-03-11T09:29:23.157Z,31.29
2023-03-11T09:30:25.206Z,27.77
2023-03-11T09:31:27.553Z,29.24
2023-03-11T09:32:29.854Z,30.43
2023-03-11T09:33:37.355Z,29.27
2023-03-11T09:34:40.725Z,28.05
2023-03-11T09:35:42.822Z,29.11
2023-03-11T09:36:45.725Z,29.90
2023-03-11T09:37:47.735Z,29.35
2023-03-11T09:38:49.822Z,29.62
2023-03-11T09:39:53.119Z,29.84
2023-03-11T09:41:07.685Z,29.96
2023-03-11T09:42:19.301Z,29.61
2023-03-11T09:43:31.048Z,30.39
2023-03-11T09:44:46.358Z,30.04
2023-03-11T09:48:33.180Z,29.12
2023-03-11T09:49:58.542Z,29.97
2023-03-11T09:51:06.984Z,30.10
2023-03-11T09:52:12.656Z,30.53
2023-03-11T09:53:36.217Z,31.11
2023-03-11T09:57:02.506Z,32.16
2023-03-11T09:58:18.363Z,30.36
2023-03-11T09:59:31.961Z,30.59
2023-03-11T10:00:35.101Z,30.86
2023-03-11T10:01:43.689Z,30.86
2023-03-11T10:02:46.456Z,31.68
2023-03-11T10:03:51.419Z,30.99
2023-03-11T10:05:09.097Z,28.17
2023-03-11T10:06:18.149Z,30.24
2023-03-11T10:07:23.840Z,29.43
2023-03-11T10:08:29.633Z,30.13
2023-03-11T10:09:39.588Z,29.58
2023-03-11T10:10:45.589Z,29.27
2023-03-11T10:12:00.527Z,30.26
2023-03-11T10:13:12.415Z,30.14
2023-03-11T10:14:21.298Z,28.70
2023-03-11T10:15:30.869Z,30.39
2023-03-11T10:16:46.943Z,30.39
2023-03-11T10:18:05.452Z,29.82
2023-03-11T10:21:55.203Z,32.26
2023-03-11T10:23:34.562Z,30.44
2023-03-11T10:24:58.365Z,29.96
2023-03-11T10:26:07.006Z,29.69
2023-03-11T10:27:12.788Z,30.58
2023-03-11T10:28:20.586Z,27.83
2023-03-11T10:29:32.435Z,28.81
2023-03-11T10:30:53.359Z,28.94
2023-03-11T10:32:16.980Z,29.14
2023-03-11T10:33:42.790Z,27.64
2023-03-11T10:35:05.088Z,27.72
2023-03-11T10:36:11.240Z,27.13
2023-03-11T10:37:49.311Z,25.96
2023-03-11T10:38:49.871Z,26.22
2023-03-11T10:39:52.050Z,26.22
2023-03-11T10:40:56.954Z,25.71
2023-03-11T10:42:02.265Z,24.59
2023-03-11T10:44:35.808Z,25.26
2023-03-11T10:45:40.066Z,25.01
2023-03-11T10:46:42.147Z,25.41
2023-03-11T10:47:44.023Z,24.97
2023-03-11T10:48:46.030Z,24.63
2023-03-11T10:49:49.247Z,25.53
2023-03-11T10:51:04.287Z,25.50
2023-03-11T10:52:06.506Z,24.40
2023-03-11T10:53:12.263Z,23.79
2023-03-11T10:54:34.487Z,23.33
2023-03-11T10:55:40.199Z,25.03
2023-03-11T10:56:42.514Z,23.53
2023-03-11T10:57:44.634Z,23.56
2023-03-11T10:58:51.952Z,24.37
2023-03-11T10:59:56.509Z,24.76
2023-03-11T11:01:03.559Z,24.68
2023-03-11T11:02:34.006Z,24.08
2023-03-11T11:03:37.946Z,25.01
2023-03-11T11:04:40.447Z,24.10
2023-03-11T11:05:42.522Z,23.13
2023-03-11T11:06:46.071Z,25.18
2023-03-11T11:08:03.631Z,25.68
2023-03-11T11:09:26.642Z,24.47
2023-03-11T11:10:29.491Z,26.40
2023-03-11T11:11:32.203Z,24.74
2023-03-11T11:12:34.085Z,24.37
2023-03-11T11:13:35.962Z,24.55
2023-03-11T11:14:43.913Z,24.89
2023-03-11T11:15:59.086Z,24.73
2023-03-11T11:17:01.868Z,25.46
2023-03-11T11:18:16.404Z,24.65
2023-03-11T11:19:19.950Z,23.33
2023-03-11T11:20:24.617Z,25.30
2023-03-11T11:21:39.409Z,24.11
2023-03-11T11:22:57.174Z,24.38
2023-03-11T11:24:18.759Z,24.09
2023-03-11T11:26:39.590Z,24.07
2023-03-11T11:27:45.335Z,22.94
2023-03-11T11:31:23.435Z,22.42
2023-03-11T11:32:27.806Z,21.43
2023-03-11T11:33:51.452Z,23.87
2023-03-11T11:35:02.467Z,22.72
2023-03-11T11:36:08.034Z,23.33
2023-03-11T11:37:12.664Z,23.07
2023-03-11T11:38:15.032Z,23.06
2023-03-11T11:39:19.720Z,24.57
2023-03-11T11:40:33.214Z,26.12
2023-03-11T11:41:36.079Z,23.87
2023-03-11T11:42:41.726Z,23.92
2023-03-11T11:43:55.929Z,25.64
2023-03-11T11:45:01.731Z,26.43
2023-03-11T11:46:25.733Z,27.66
2023-03-11T11:47:31.556Z,27.42
2023-03-11T11:48:37.282Z,28.89
2023-03-11T11:49:43.911Z,29.63
2023-03-11T11:50:59.146Z,29.41
2023-03-11T11:52:29.609Z,30.92
2023-03-11T11:53:38.219Z,31.37
2023-03-11T11:54:48.825Z,32.94
2023-03-11T11:55:52.763Z,32.47
2023-03-11T11:56:56.595Z,32.98
2023-03-11T11:58:01.350Z,32.63
2023-03-11T11:59:07.145Z,33.13
2023-03-11T12:00:19.606Z,34.78
2023-03-11T12:01:41.369Z,34.78
2023-03-11T12:03:03.777Z,34.03
2023-03-11T12:04:21.690Z,35.23
2023-03-11T12:05:29.495Z,32.57
2023-03-11T12:06:43.068Z,32.06
2023-03-11T12:08:04.213Z,33.60
2023-03-11T12:10:37.916Z,31.71
2023-03-11T12:13:45.540Z,31.99
2023-03-11T12:15:03.129Z,34.31
2023-03-11T12:16:18.825Z,33.53
2023-03-11T12:17:24.047Z,31.54
2023-03-11T12:18:41.425Z,31.52
2023-03-11T12:22:48.264Z,28.48
2023-03-11T12:24:18.154Z,28.36
2023-03-11T12:25:40.911Z,26.92
2023-03-11T12:26:45.839Z,28.17
2023-03-11T12:27:57.489Z,27.72
2023-03-11T12:29:16.203Z,29.22
2023-03-11T12:30:25.190Z,27.25
2023-03-11T12:31:30.915Z,27.46
2023-03-11T12:32:42.381Z,27.69
2023-03-11T12:34:52.401Z,25.34
2023-03-11T12:35:57.724Z,25.25
2023-03-11T12:37:02.367Z,24.18
2023-03-11T12:38:19.961Z,25.35
2023-03-11T12:39:26.128Z,25.37
2023-03-11T12:40:51.826Z,26.02
2023-03-11T12:42:14.208Z,24.57
2023-03-11T12:43:34.336Z,25.02
2023-03-11T12:44:37.700Z,24.76
2023-03-11T12:45:48.987Z,25.27
2023-03-11T12:48:28.365Z,25.67
2023-03-11T12:50:42.700Z,27.49
2023-03-11T12:52:08.825Z,24.78
2023-03-11T12:53:14.585Z,23.82
2023-03-11T12:54:31.769Z,24.81
2023-03-11T12:55:36.322Z,25.70
2023-03-11T12:56:47.301Z,23.40
2023-03-11T12:57:53.078Z,23.50
2023-03-11T12:59:05.487Z,23.72
2023-03-11T13:00:34.269Z,23.48
2023-03-11T13:01:58.360Z,24.46
2023-03-11T13:05:49.282Z,24.16
2023-03-11T13:07:24.349Z,25.27
2023-03-11T13:08:38.438Z,25.82
2023-03-11T13:09:40.702Z,27.78
2023-03-11T13:10:45.627Z,25.69
2023-03-11T13:11:48.475Z,26.42
2023-03-11T13:12:52.277Z,26.41
2023-03-11T13:14:16.350Z,25.03
2023-03-11T13:15:22.040Z,25.73
2023-03-11T13:16:28.176Z,24.46
2023-03-11T13:17:30.416Z,24.85
2023-03-11T13:18:32.813Z,26.25
2023-03-11T13:19:38.556Z,24.13
2023-03-11T13:20:47.281Z,25.62
2023-03-11T13:21:49.224Z,23.62
2023-03-11T13:23:01.356Z,23.97
2023-03-11T13:24:22.290Z,24.09
2023-03-11T13:25:30.750Z,25.32
2023-03-11T13:28:59.770Z,23.56
2023-03-11T13:30:11.534Z,23.86
2023-03-11T13:31:38.524Z,23.94
2023-03-11T13:34:40.515Z,24.11
2023-03-11T13:35:46.328Z,24.15
2023-03-11T13:36:52.591Z,24.53
2023-03-11T13:38:15.371Z,24.78
2023-03-11T13:39:33.272Z,25.54
2023-03-11T13:40:41.858Z,22.63
2023-03-11T13:41:45.279Z,22.41
2023-03-11T13:42:53.201Z,23.35
2023-03-11T13:43:59.352Z,23.12
2023-03-11T13:45:01.714Z,22.39
2023-03-11T13:46:08.400Z,22.96
2023-03-11T13:47:16.224Z,22.12
2023-03-11T13:48:25.093Z,22.49
2023-03-11T13:49:33.625Z,23.91
2023-03-11T13:50:42.162Z,22.12
2023-03-11T13:51:46.603Z,21.94
2023-03-11T13:52:52.284Z,22.78
2023-03-11T13:53:58.036Z,21.44
2023-03-11T13:55:07.426Z,21.45
2023-03-11T13:56:18.698Z,22.88
2023-03-11T13:57:30.366Z,23.53
2023-03-11T13:58:32.280Z,22.68
2023-03-11T13:59:35.028Z,21.67
2023-03-11T14:00:37.380Z,22.66
2023-03-11T14:01:40.591Z,20.13
2023-03-11T14:03:00.713Z,20.59
2023-03-11T14:04:06.966Z,21.12
2023-03-11T14:05:12.798Z,21.60
2023-03-11T14:06:20.072Z,21.26
2023-03-11T14:07:31.637Z,21.26
2023-03-11T14:08:36.576Z,20.32
2023-03-11T14:09:38.786Z,22.43
2023-03-11T14:10:56.794Z,27.05
2023-03-11T14:12:06.893Z,30.76
2023-03-11T14:13:15.654Z,27.73
2023-03-11T14:14:33.630Z,25.19
2023-03-11T14:15:42.377Z,21.69
2023-03-11T14:16:44.864Z,20.16
2023-03-11T14:17:48.838Z,18.77
2023-03-11T14:19:18.581Z,18.44
2023-03-11T14:20:23.259Z,18.53
2023-03-11T14:21:25.406Z,17.96
2023-03-11T14:22:27.526Z,17.65
2023-03-11T14:23:35.534Z,17.69
2023-03-11T14:24:38.062Z,16.43
2023-03-11T14:25:41.924Z,17.64
2023-03-11T14:26:45.508Z,17.25
2023-03-11T14:27:57.040Z,15.38
2023-03-11T14:29:03.556Z,15.80
2023-03-11T14:30:07.772Z,15.79
2023-03-11T14:31:22.541Z,16.61
2023-03-11T14:33:38.954Z,16.08
2023-03-11T14:34:40.982Z,16.80